sensor_id;sensor_type;location;lat;lon;timestamp;temperature;humidity
24412;DHT22;12544;46.760;15.942;2022-09-13T00:01:41;15.70;99.90
24412;DHT22;12544;46.760;15.942;2022-09-13T00:04:06;15.60;99.90
24412;DHT22;12544;46.760;15.942;2022-09-13T00:06:32;15.60;99.90
24412;DHT22;12544;46.760;15.942;2022-09-13T00:08:58;15.50;99.90
24412;DHT22;12544;46.760;15.942;2022-09-13T00:11:26;15.50;99.90
24412;DHT22;12544;46.760;15.942;2022-09-13T00:13:52;15.40;99.90
24412;DHT22;12544;46.760;15.942;2022-09-13T00:16:19;15.40;99.90
24412;DHT22;12544;46.760;15.942;2022-09-13T00:18:44;15.30;99.90
24412;DHT22;12544;46.760;15.942;2022-09-13T00:21:11;15.30;99.90
24412;DHT22;12544;46.760;15.942;2022-09-13T00:23:37;15.20;99.90
24412;DHT22;12544;46.760;15.942;2022-09-13T00:26:04;15.20;99.90
24412;DHT22;12544;46.760;15.942;2022-09-13T00:28:30;15.10;99.90
24412;DHT22;12544;46.760;15.942;2022-09-13T00:30:58;15.10;99.90
24412;DHT22;12544;46.760;15.942;2022-09-13T00:33:23;15.10;99.90
24412;DHT22;12544;46.760;15.942;2022-09-13T00:35:49;15.00;99.90
24412;DHT22;12544;46.760;15.942;2022-09-13T00:38:14;15.10;99.90
24412;DHT22;12544;46.760;15.942;2022-09-13T00:40:40;15.10;99.90
24412;DHT22;12544;46.760;15.942;2022-09-13T00:43:09;15.10;99.90
24412;DHT22;12544;46.760;15.942;2022-09-13T00:45:36;15.10;99.90
24412;DHT22;12544;46.760;15.942;2022-09-13T00:48:06;15.10;99.90
24412;DHT22;12544;46.760;15.942;2022-09-13T00:50:39;15.00;99.90
24412;DHT22;12544;46.760;15.942;2022-09-13T00:55:57;14.90;99.90
24412;DHT22;12544;46.760;15.942;2022-09-13T00:58:33;14.90;99.90
24412;DHT22;12544;46.760;15.942;2022-09-13T01:01:00;14.90;99.90
24412;DHT22;12544;46.760;15.942;2022-09-13T01:03:27;14.90;99.90
24412;DHT22;12544;46.760;15.942;2022-09-13T01:05:55;14.90;99.90
24412;DHT22;12544;46.760;15.942;2022-09-13T01:08:21;14.90;99.90
24412;DHT22;12544;46.760;15.942;2022-09-13T01:10:51;14.90;99.90
24412;DHT22;12544;46.760;15.942;2022-09-13T01:13:22;14.90;99.90
24412;DHT22;12544;46.760;15.942;2022-09-13T01:15:48;14.80;99.90
24412;DHT22;12544;46.760;15.942;2022-09-13T01:18:14;14.80;99.90
24412;DHT22;12544;46.760;15.942;2022-09-13T01:23:26;14.70;99.90
24412;DHT22;12544;46.760;15.942;2022-09-13T01:33:40;14.70;99.90
24412;DHT22;12544;46.760;15.942;2022-09-13T01:39:07;14.70;99.90
24412;DHT22;12544;46.760;15.942;2022-09-13T01:47:02;14.60;99.90
24412;DHT22;12544;46.760;15.942;2022-09-13T01:57:14;14.50;99.90
24412;DHT22;12544;46.760;15.942;2022-09-13T02:02:32;14.50;99.90
24412;DHT22;12544;46.760;15.942;2022-09-13T02:05:06;14.40;99.90
24412;DHT22;12544;46.760;15.942;2022-09-13T02:07:36;14.40;99.90
24412;DHT22;12544;46.760;15.942;2022-09-13T02:10:06;14.40;99.90
24412;DHT22;12544;46.760;15.942;2022-09-13T02:12:33;14.30;99.90
24412;DHT22;12544;46.760;15.942;2022-09-13T02:15:06;14.30;99.90
24412;DHT22;12544;46.760;15.942;2022-09-13T02:17:35;14.30;99.90
24412;DHT22;12544;46.760;15.942;2022-09-13T02:20:06;14.30;99.90
24412;DHT22;12544;46.760;15.942;2022-09-13T02:22:33;14.30;99.90
24412;DHT22;12544;46.760;15.942;2022-09-13T02:25:11;14.20;99.90
24412;DHT22;12544;46.760;15.942;2022-09-13T02:27:38;14.20;99.90
24412;DHT22;12544;46.760;15.942;2022-09-13T02:30:05;14.20;99.90
24412;DHT22;12544;46.760;15.942;2022-09-13T02:32:36;14.10;99.90
24412;DHT22;12544;46.760;15.942;2022-09-13T02:37:28;14.10;99.90
24412;DHT22;12544;46.760;15.942;2022-09-13T02:39:56;14.00;99.90
24412;DHT22;12544;46.760;15.942;2022-09-13T02:42:25;14.00;99.90
24412;DHT22;12544;46.760;15.942;2022-09-13T02:44:53;14.10;99.90
24412;DHT22;12544;46.760;15.942;2022-09-13T02:47:36;13.90;99.90
24412;DHT22;12544;46.760;15.942;2022-09-13T02:50:08;13.90;99.90
24412;DHT22;12544;46.760;15.942;2022-09-13T02:52:49;13.80;99.90
24412;DHT22;12544;46.760;15.942;2022-09-13T03:00:38;13.70;99.90
24412;DHT22;12544;46.760;15.942;2022-09-13T03:05:39;13.70;99.90
24412;DHT22;12544;46.760;15.942;2022-09-13T03:08:05;13.70;99.90
24412;DHT22;12544;46.760;15.942;2022-09-13T03:10:39;13.70;99.90
24412;DHT22;12544;46.760;15.942;2022-09-13T03:13:15;13.70;99.90
24412;DHT22;12544;46.760;15.942;2022-09-13T03:16:03;13.70;99.90
24412;DHT22;12544;46.760;15.942;2022-09-13T03:18:47;13.60;99.90
24412;DHT22;12544;46.760;15.942;2022-09-13T03:21:18;13.60;99.90
24412;DHT22;12544;46.760;15.942;2022-09-13T03:31:46;13.50;99.90
24412;DHT22;12544;46.760;15.942;2022-09-13T03:34:22;13.50;99.90
24412;DHT22;12544;46.760;15.942;2022-09-13T03:36:53;13.50;99.90
24412;DHT22;12544;46.760;15.942;2022-09-13T03:39:23;13.50;99.90
24412;DHT22;12544;46.760;15.942;2022-09-13T03:41:53;13.50;99.90
24412;DHT22;12544;46.760;15.942;2022-09-13T03:44:20;13.50;99.90
24412;DHT22;12544;46.760;15.942;2022-09-13T03:46:47;13.40;99.90
24412;DHT22;12544;46.760;15.942;2022-09-13T03:49:14;13.40;99.90
24412;DHT22;12544;46.760;15.942;2022-09-13T03:51:42;13.40;99.90
24412;DHT22;12544;46.760;15.942;2022-09-13T03:54:09;13.30;99.90
24412;DHT22;12544;46.760;15.942;2022-09-13T03:56:38;13.30;99.90
24412;DHT22;12544;46.760;15.942;2022-09-13T03:59:04;13.30;99.90
24412;DHT22;12544;46.760;15.942;2022-09-13T04:01:29;13.30;99.90
24412;DHT22;12544;46.760;15.942;2022-09-13T04:03:55;13.20;99.90
24412;DHT22;12544;46.760;15.942;2022-09-13T04:06:20;13.20;99.90
24412;DHT22;12544;46.760;15.942;2022-09-13T04:08:46;13.20;99.90
24412;DHT22;12544;46.760;15.942;2022-09-13T04:11:11;13.10;99.90
24412;DHT22;12544;46.760;15.942;2022-09-13T04:13:37;13.20;99.90
24412;DHT22;12544;46.760;15.942;2022-09-13T04:16:03;13.10;99.90
24412;DHT22;12544;46.760;15.942;2022-09-13T04:18:29;13.10;99.90
24412;DHT22;12544;46.760;15.942;2022-09-13T04:21:05;13.00;99.90
24412;DHT22;12544;46.760;15.942;2022-09-13T04:23:31;13.00;99.90
24412;DHT22;12544;46.760;15.942;2022-09-13T04:26:01;13.00;99.90
24412;DHT22;12544;46.760;15.942;2022-09-13T04:28:26;12.80;99.90
24412;DHT22;12544;46.760;15.942;2022-09-13T04:30:52;12.50;99.90
24412;DHT22;12544;46.760;15.942;2022-09-13T04:33:18;12.20;99.90
24412;DHT22;12544;46.760;15.942;2022-09-13T04:35:43;12.10;99.90
24412;DHT22;12544;46.760;15.942;2022-09-13T04:38:08;12.30;99.90
24412;DHT22;12544;46.760;15.942;2022-09-13T04:40:34;12.40;99.90
24412;DHT22;12544;46.760;15.942;2022-09-13T04:43:13;12.50;99.90
24412;DHT22;12544;46.760;15.942;2022-09-13T04:45:38;12.60;99.90
24412;DHT22;12544;46.760;15.942;2022-09-13T04:48:04;12.60;99.90
24412;DHT22;12544;46.760;15.942;2022-09-13T04:50:30;12.50;99.90
24412;DHT22;12544;46.760;15.942;2022-09-13T04:53:02;12.40;99.90
24412;DHT22;12544;46.760;15.942;2022-09-13T04:55:27;12.50;99.90
24412;DHT22;12544;46.760;15.942;2022-09-13T04:57:53;12.40;99.90
24412;DHT22;12544;46.760;15.942;2022-09-13T05:00:20;12.40;99.90
24412;DHT22;12544;46.760;15.942;2022-09-13T05:02:46;12.40;99.90
24412;DHT22;12544;46.760;15.942;2022-09-13T05:05:11;12.50;99.90
24412;DHT22;12544;46.760;15.942;2022-09-13T05:07:37;12.60;99.90
24412;DHT22;12544;46.760;15.942;2022-09-13T05:10:04;12.60;99.90
24412;DHT22;12544;46.760;15.942;2022-09-13T05:12:30;12.60;99.90
24412;DHT22;12544;46.760;15.942;2022-09-13T05:14:55;12.50;99.90
24412;DHT22;12544;46.760;15.942;2022-09-13T05:17:21;12.70;99.90
24412;DHT22;12544;46.760;15.942;2022-09-13T05:19:51;12.80;99.90
24412;DHT22;12544;46.760;15.942;2022-09-13T05:22:17;12.80;99.90
24412;DHT22;12544;46.760;15.942;2022-09-13T05:24:42;12.90;99.90
24412;DHT22;12544;46.760;15.942;2022-09-13T05:27:09;13.00;99.90
24412;DHT22;12544;46.760;15.942;2022-09-13T05:29:35;13.00;99.90
24412;DHT22;12544;46.760;15.942;2022-09-13T05:32:01;13.10;99.90
24412;DHT22;12544;46.760;15.942;2022-09-13T05:34:27;13.10;99.90
24412;DHT22;12544;46.760;15.942;2022-09-13T05:36:52;13.10;99.90
24412;DHT22;12544;46.760;15.942;2022-09-13T05:39:18;13.10;99.90
24412;DHT22;12544;46.760;15.942;2022-09-13T05:41:44;13.10;99.90
24412;DHT22;12544;46.760;15.942;2022-09-13T05:44:12;13.10;99.90
24412;DHT22;12544;46.760;15.942;2022-09-13T05:46:38;13.20;99.90
24412;DHT22;12544;46.760;15.942;2022-09-13T05:49:03;13.10;99.90
24412;DHT22;12544;46.760;15.942;2022-09-13T05:51:29;13.20;99.90
24412;DHT22;12544;46.760;15.942;2022-09-13T05:54:09;13.30;99.90
24412;DHT22;12544;46.760;15.942;2022-09-13T05:56:35;13.40;99.90
24412;DHT22;12544;46.760;15.942;2022-09-13T05:59:01;13.40;99.90
24412;DHT22;12544;46.760;15.942;2022-09-13T06:01:26;13.40;99.90
24412;DHT22;12544;46.760;15.942;2022-09-13T06:03:54;13.50;99.90
24412;DHT22;12544;46.760;15.942;2022-09-13T06:06:20;13.50;99.90
24412;DHT22;12544;46.760;15.942;2022-09-13T06:09:00;13.50;99.90
24412;DHT22;12544;46.760;15.942;2022-09-13T06:11:26;13.60;99.90
24412;DHT22;12544;46.760;15.942;2022-09-13T06:13:51;13.60;99.90
24412;DHT22;12544;46.760;15.942;2022-09-13T06:16:17;13.70;99.90
24412;DHT22;12544;46.760;15.942;2022-09-13T06:18:43;13.70;99.90
24412;DHT22;12544;46.760;15.942;2022-09-13T06:21:09;13.70;99.90
24412;DHT22;12544;46.760;15.942;2022-09-13T06:23:36;13.70;99.90
24412;DHT22;12544;46.760;15.942;2022-09-13T06:26:05;13.70;99.90
24412;DHT22;12544;46.760;15.942;2022-09-13T06:28:31;13.80;99.90
24412;DHT22;12544;46.760;15.942;2022-09-13T06:31:15;13.90;99.90
24412;DHT22;12544;46.760;15.942;2022-09-13T06:33:42;14.00;99.90
24412;DHT22;12544;46.760;15.942;2022-09-13T06:36:09;14.00;99.90
24412;DHT22;12544;46.760;15.942;2022-09-13T06:38:35;14.10;99.90
24412;DHT22;12544;46.760;15.942;2022-09-13T06:41:05;14.20;99.90
24412;DHT22;12544;46.760;15.942;2022-09-13T06:43:30;14.20;99.90
24412;DHT22;12544;46.760;15.942;2022-09-13T06:46:00;14.30;99.90
24412;DHT22;12544;46.760;15.942;2022-09-13T06:48:32;14.30;99.90
24412;DHT22;12544;46.760;15.942;2022-09-13T06:50:58;14.40;99.90
24412;DHT22;12544;46.760;15.942;2022-09-13T06:53:24;14.50;99.90
24412;DHT22;12544;46.760;15.942;2022-09-13T06:55:58;14.60;99.90
24412;DHT22;12544;46.760;15.942;2022-09-13T06:58:24;14.60;99.90
24412;DHT22;12544;46.760;15.942;2022-09-13T07:01:03;14.70;99.90
24412;DHT22;12544;46.760;15.942;2022-09-13T07:03:29;14.80;99.90
24412;DHT22;12544;46.760;15.942;2022-09-13T07:05:54;14.90;99.90
24412;DHT22;12544;46.760;15.942;2022-09-13T07:08:19;15.00;99.90
24412;DHT22;12544;46.760;15.942;2022-09-13T07:10:45;15.00;99.90
24412;DHT22;12544;46.760;15.942;2022-09-13T07:13:11;15.10;99.90
24412;DHT22;12544;46.760;15.942;2022-09-13T07:15:36;15.10;99.90
24412;DHT22;12544;46.760;15.942;2022-09-13T07:18:01;15.30;99.90
24412;DHT22;12544;46.760;15.942;2022-09-13T07:20:28;15.40;99.90
24412;DHT22;12544;46.760;15.942;2022-09-13T07:22:53;15.40;99.90
24412;DHT22;12544;46.760;15.942;2022-09-13T07:25:19;15.50;99.90
24412;DHT22;12544;46.760;15.942;2022-09-13T07:27:44;15.70;99.90
24412;DHT22;12544;46.760;15.942;2022-09-13T07:30:10;15.70;99.90
24412;DHT22;12544;46.760;15.942;2022-09-13T07:32:35;15.90;99.90
24412;DHT22;12544;46.760;15.942;2022-09-13T07:37:32;16.20;99.90
24412;DHT22;12544;46.760;15.942;2022-09-13T07:39:57;16.30;99.90
24412;DHT22;12544;46.760;15.942;2022-09-13T07:42:23;16.30;99.90
24412;DHT22;12544;46.760;15.942;2022-09-13T07:44:48;16.50;99.90
24412;DHT22;12544;46.760;15.942;2022-09-13T07:47:14;16.60;99.90
24412;DHT22;12544;46.760;15.942;2022-09-13T07:49:39;16.70;99.90
24412;DHT22;12544;46.760;15.942;2022-09-13T07:52:05;16.90;99.90
24412;DHT22;12544;46.760;15.942;2022-09-13T07:54:30;17.00;99.90
24412;DHT22;12544;46.760;15.942;2022-09-13T07:56:56;17.00;99.90
24412;DHT22;12544;46.760;15.942;2022-09-13T07:59:25;17.00;99.90
24412;DHT22;12544;46.760;15.942;2022-09-13T08:01:51;17.10;99.90
24412;DHT22;12544;46.760;15.942;2022-09-13T08:04:18;17.10;99.90
24412;DHT22;12544;46.760;15.942;2022-09-13T08:06:44;17.20;99.90
24412;DHT22;12544;46.760;15.942;2022-09-13T08:09:10;17.30;99.90
24412;DHT22;12544;46.760;15.942;2022-09-13T08:11:37;17.30;99.90
24412;DHT22;12544;46.760;15.942;2022-09-13T08:14:03;17.40;99.90
24412;DHT22;12544;46.760;15.942;2022-09-13T08:16:30;17.70;99.90
24412;DHT22;12544;46.760;15.942;2022-09-13T08:18:56;17.80;99.90
24412;DHT22;12544;46.760;15.942;2022-09-13T08:21:22;18.00;99.90
24412;DHT22;12544;46.760;15.942;2022-09-13T08:23:48;18.00;99.90
24412;DHT22;12544;46.760;15.942;2022-09-13T08:26:14;18.00;99.90
24412;DHT22;12544;46.760;15.942;2022-09-13T08:28:41;18.20;99.90
24412;DHT22;12544;46.760;15.942;2022-09-13T08:33:32;18.40;99.90
24412;DHT22;12544;46.760;15.942;2022-09-13T08:35:58;18.30;99.90
24412;DHT22;12544;46.760;15.942;2022-09-13T08:38:24;18.20;99.90
24412;DHT22;12544;46.760;15.942;2022-09-13T08:40:52;18.20;99.90
24412;DHT22;12544;46.760;15.942;2022-09-13T08:45:50;18.40;99.90
24412;DHT22;12544;46.760;15.942;2022-09-13T08:48:19;18.70;99.90
24412;DHT22;12544;46.760;15.942;2022-09-13T08:50:47;18.90;99.90
24412;DHT22;12544;46.760;15.942;2022-09-13T09:00:57;19.40;99.90
24412;DHT22;12544;46.760;15.942;2022-09-13T09:03:29;19.50;99.90
24412;DHT22;12544;46.760;15.942;2022-09-13T09:06:00;19.60;99.90
24412;DHT22;12544;46.760;15.942;2022-09-13T09:10:56;19.80;99.90
24412;DHT22;12544;46.760;15.942;2022-09-13T09:15:52;20.00;99.90
24412;DHT22;12544;46.760;15.942;2022-09-13T09:18:28;20.10;99.90
24412;DHT22;12544;46.760;15.942;2022-09-13T09:20:56;20.10;99.90
24412;DHT22;12544;46.760;15.942;2022-09-13T09:23:23;20.20;99.90
24412;DHT22;12544;46.760;15.942;2022-09-13T09:25:50;20.30;99.90
24412;DHT22;12544;46.760;15.942;2022-09-13T09:28:16;20.40;99.90
24412;DHT22;12544;46.760;15.942;2022-09-13T09:30:49;20.60;99.90
24412;DHT22;12544;46.760;15.942;2022-09-13T09:33:22;20.70;99.90
24412;DHT22;12544;46.760;15.942;2022-09-13T09:35:55;20.80;99.90
24412;DHT22;12544;46.760;15.942;2022-09-13T09:38:34;20.70;99.90
24412;DHT22;12544;46.760;15.942;2022-09-13T09:41:09;20.80;99.90
24412;DHT22;12544;46.760;15.942;2022-09-13T09:43:41;21.00;99.90
24412;DHT22;12544;46.760;15.942;2022-09-13T09:46:09;21.20;99.90
24412;DHT22;12544;46.760;15.942;2022-09-13T09:48:43;21.40;99.90
24412;DHT22;12544;46.760;15.942;2022-09-13T09:51:10;21.50;99.90
24412;DHT22;12544;46.760;15.942;2022-09-13T09:53:39;21.60;99.90
24412;DHT22;12544;46.760;15.942;2022-09-13T09:58:40;21.60;99.90
24412;DHT22;12544;46.760;15.942;2022-09-13T10:06:39;22.00;99.90
24412;DHT22;12544;46.760;15.942;2022-09-13T10:09:14;22.20;99.90
24412;DHT22;12544;46.760;15.942;2022-09-13T10:11:44;22.20;99.90
24412;DHT22;12544;46.760;15.942;2022-09-13T10:17:27;22.50;99.90
24412;DHT22;12544;46.760;15.942;2022-09-13T10:22:37;22.70;99.90
24412;DHT22;12544;46.760;15.942;2022-09-13T10:25:17;22.70;99.90
24412;DHT22;12544;46.760;15.942;2022-09-13T10:27:49;22.80;99.90
24412;DHT22;12544;46.760;15.942;2022-09-13T10:33:02;23.10;99.90
24412;DHT22;12544;46.760;15.942;2022-09-13T10:35:28;23.10;99.90
24412;DHT22;12544;46.760;15.942;2022-09-13T10:37:53;23.10;99.90
24412;DHT22;12544;46.760;15.942;2022-09-13T10:42:51;23.20;99.90
24412;DHT22;12544;46.760;15.942;2022-09-13T10:45:21;23.30;99.90
24412;DHT22;12544;46.760;15.942;2022-09-13T10:47:47;23.20;99.90
24412;DHT22;12544;46.760;15.942;2022-09-13T10:50:25;23.20;99.90
24412;DHT22;12544;46.760;15.942;2022-09-13T10:52:54;23.40;99.90
24412;DHT22;12544;46.760;15.942;2022-09-13T10:55:25;23.50;99.90
24412;DHT22;12544;46.760;15.942;2022-09-13T10:57:52;23.70;99.90
24412;DHT22;12544;46.760;15.942;2022-09-13T11:00:19;23.70;99.90
24412;DHT22;12544;46.760;15.942;2022-09-13T11:05:40;23.50;99.90
24412;DHT22;12544;46.760;15.942;2022-09-13T11:08:10;23.70;99.90
24412;DHT22;12544;46.760;15.942;2022-09-13T11:10:44;23.90;99.90
24412;DHT22;12544;46.760;15.942;2022-09-13T11:21:29;24.00;99.90
24412;DHT22;12544;46.760;15.942;2022-09-13T11:39:18;24.70;99.30
24412;DHT22;12544;46.760;15.942;2022-09-13T11:55:27;25.50;96.90
24412;DHT22;12544;46.760;15.942;2022-09-13T11:57:55;25.60;97.20
24412;DHT22;12544;46.760;15.942;2022-09-13T12:00:22;25.80;97.20
24412;DHT22;12544;46.760;15.942;2022-09-13T12:02:51;25.80;97.40
24412;DHT22;12544;46.760;15.942;2022-09-13T12:05:22;26.00;97.60
24412;DHT22;12544;46.760;15.942;2022-09-13T12:07:51;26.10;98.00
24412;DHT22;12544;46.760;15.942;2022-09-13T12:12:45;26.20;96.20
24412;DHT22;12544;46.760;15.942;2022-09-13T12:15:18;26.20;97.10
24412;DHT22;12544;46.760;15.942;2022-09-13T12:17:52;26.30;97.40
24412;DHT22;12544;46.760;15.942;2022-09-13T12:22:44;26.10;94.60
24412;DHT22;12544;46.760;15.942;2022-09-13T12:25:15;26.20;96.70
24412;DHT22;12544;46.760;15.942;2022-09-13T12:27:47;26.30;95.40
24412;DHT22;12544;46.760;15.942;2022-09-13T12:32:42;26.60;94.50
24412;DHT22;12544;46.760;15.942;2022-09-13T12:37:44;26.40;94.40
24412;DHT22;12544;46.760;15.942;2022-09-13T12:51:54;26.50;95.10
24412;DHT22;12544;46.760;15.942;2022-09-13T12:56:32;26.50;94.50
24412;DHT22;12544;46.760;15.942;2022-09-13T13:01:33;26.70;94.40
24412;DHT22;12544;46.760;15.942;2022-09-13T13:06:54;26.60;93.40
24412;DHT22;12544;46.760;15.942;2022-09-13T13:09:40;26.40;94.00
24412;DHT22;12544;46.760;15.942;2022-09-13T13:12:10;26.30;92.40
24412;DHT22;12544;46.760;15.942;2022-09-13T13:19:57;27.00;93.10
24412;DHT22;12544;46.760;15.942;2022-09-13T13:25:29;27.30;90.70
24412;DHT22;12544;46.760;15.942;2022-09-13T13:27:55;27.50;91.60
24412;DHT22;12544;46.760;15.942;2022-09-13T13:35:37;27.60;88.90
24412;DHT22;12544;46.760;15.942;2022-09-13T13:38:15;27.60;87.10
24412;DHT22;12544;46.760;15.942;2022-09-13T13:40:41;27.60;89.90
24412;DHT22;12544;46.760;15.942;2022-09-13T13:46:33;27.70;89.30
24412;DHT22;12544;46.760;15.942;2022-09-13T13:48:40;27.80;86.90
24412;DHT22;12544;46.760;15.942;2022-09-13T13:51:13;27.80;89.50
24412;DHT22;12544;46.760;15.942;2022-09-13T13:53:59;27.70;90.50
24412;DHT22;12544;46.760;15.942;2022-09-13T13:56:28;27.60;90.00
24412;DHT22;12544;46.760;15.942;2022-09-13T13:58:59;27.50;89.90
24412;DHT22;12544;46.760;15.942;2022-09-13T14:01:29;27.60;90.30
24412;DHT22;12544;46.760;15.942;2022-09-13T14:06:43;27.80;89.60
24412;DHT22;12544;46.760;15.942;2022-09-13T14:09:20;27.80;91.10
24412;DHT22;12544;46.760;15.942;2022-09-13T14:19:40;27.20;91.50
24412;DHT22;12544;46.760;15.942;2022-09-13T14:22:25;27.30;91.80
24412;DHT22;12544;46.760;15.942;2022-09-13T14:24:55;27.50;92.40
24412;DHT22;12544;46.760;15.942;2022-09-13T14:27:32;27.70;90.60
24412;DHT22;12544;46.760;15.942;2022-09-13T14:29:59;27.90;90.90
24412;DHT22;12544;46.760;15.942;2022-09-13T14:32:27;28.10;90.60
24412;DHT22;12544;46.760;15.942;2022-09-13T14:34:57;27.90;91.50
24412;DHT22;12544;46.760;15.942;2022-09-13T14:37:24;27.70;90.90
24412;DHT22;12544;46.760;15.942;2022-09-13T14:39:53;27.70;88.90
24412;DHT22;12544;46.760;15.942;2022-09-13T14:42:19;27.80;87.90
24412;DHT22;12544;46.760;15.942;2022-09-13T14:44:45;27.80;86.70
24412;DHT22;12544;46.760;15.942;2022-09-13T14:47:31;27.80;88.50
24412;DHT22;12544;46.760;15.942;2022-09-13T14:50:04;27.80;87.90
24412;DHT22;12544;46.760;15.942;2022-09-13T14:52:33;27.80;89.40
24412;DHT22;12544;46.760;15.942;2022-09-13T14:55:00;27.90;90.30
24412;DHT22;12544;46.760;15.942;2022-09-13T14:57:34;28.10;90.40
24412;DHT22;12544;46.760;15.942;2022-09-13T15:00:03;28.20;89.60
24412;DHT22;12544;46.760;15.942;2022-09-13T15:02:30;28.30;90.10
24412;DHT22;12544;46.760;15.942;2022-09-13T15:04:56;28.30;89.80
24412;DHT22;12544;46.760;15.942;2022-09-13T15:07:33;28.40;90.30
24412;DHT22;12544;46.760;15.942;2022-09-13T15:12:34;28.70;88.30
24412;DHT22;12544;46.760;15.942;2022-09-13T15:17:50;28.70;89.30
24412;DHT22;12544;46.760;15.942;2022-09-13T15:20:17;28.70;88.40
24412;DHT22;12544;46.760;15.942;2022-09-13T15:22:43;28.60;88.50
24412;DHT22;12544;46.760;15.942;2022-09-13T15:28:04;28.20;90.80
24412;DHT22;12544;46.760;15.942;2022-09-13T15:30:30;27.90;91.20
24412;DHT22;12544;46.760;15.942;2022-09-13T15:33:03;27.90;90.80
24412;DHT22;12544;46.760;15.942;2022-09-13T15:35:33;27.70;91.50
24412;DHT22;12544;46.760;15.942;2022-09-13T15:38:00;27.40;92.00
24412;DHT22;12544;46.760;15.942;2022-09-13T15:40:27;27.20;92.00
24412;DHT22;12544;46.760;15.942;2022-09-13T15:42:53;27.00;91.90
24412;DHT22;12544;46.760;15.942;2022-09-13T15:45:19;26.90;92.60
24412;DHT22;12544;46.760;15.942;2022-09-13T15:47:50;26.70;92.60
24412;DHT22;12544;46.760;15.942;2022-09-13T15:52:44;26.70;92.70
24412;DHT22;12544;46.760;15.942;2022-09-13T15:55:10;26.70;92.50
24412;DHT22;12544;46.760;15.942;2022-09-13T15:57:35;26.80;93.80
24412;DHT22;12544;46.760;15.942;2022-09-13T16:00:02;26.70;93.30
24412;DHT22;12544;46.760;15.942;2022-09-13T16:02:32;26.80;94.20
24412;DHT22;12544;46.760;15.942;2022-09-13T16:04:57;26.80;93.60
24412;DHT22;12544;46.760;15.942;2022-09-13T16:07:23;26.80;93.80
24412;DHT22;12544;46.760;15.942;2022-09-13T16:09:49;26.90;93.80
24412;DHT22;12544;46.760;15.942;2022-09-13T16:14:48;26.90;94.00
24412;DHT22;12544;46.760;15.942;2022-09-13T16:17:24;26.80;94.10
24412;DHT22;12544;46.760;15.942;2022-09-13T16:19:50;26.80;94.40
24412;DHT22;12544;46.760;15.942;2022-09-13T16:22:15;26.80;94.50
24412;DHT22;12544;46.760;15.942;2022-09-13T16:24:41;26.60;94.70
24412;DHT22;12544;46.760;15.942;2022-09-13T16:27:08;26.50;94.70
24412;DHT22;12544;46.760;15.942;2022-09-13T16:29:33;26.20;95.10
24412;DHT22;12544;46.760;15.942;2022-09-13T16:31:59;26.00;95.20
24412;DHT22;12544;46.760;15.942;2022-09-13T16:34:25;25.80;95.40
24412;DHT22;12544;46.760;15.942;2022-09-13T16:36:51;25.60;95.90
24412;DHT22;12544;46.760;15.942;2022-09-13T16:39:17;25.50;96.80
24412;DHT22;12544;46.760;15.942;2022-09-13T16:41:42;25.40;96.70
24412;DHT22;12544;46.760;15.942;2022-09-13T16:44:08;25.20;96.90
24412;DHT22;12544;46.760;15.942;2022-09-13T16:46:34;25.00;97.10
24412;DHT22;12544;46.760;15.942;2022-09-13T16:49:00;24.90;97.50
24412;DHT22;12544;46.760;15.942;2022-09-13T16:51:26;24.80;97.90
24412;DHT22;12544;46.760;15.942;2022-09-13T16:53:52;24.70;98.20
24412;DHT22;12544;46.760;15.942;2022-09-13T16:56:18;24.50;98.70
24412;DHT22;12544;46.760;15.942;2022-09-13T16:58:46;24.30;99.00
24412;DHT22;12544;46.760;15.942;2022-09-13T17:01:13;24.20;99.40
24412;DHT22;12544;46.760;15.942;2022-09-13T17:03:39;24.00;99.70
24412;DHT22;12544;46.760;15.942;2022-09-13T17:06:16;23.90;99.80
24412;DHT22;12544;46.760;15.942;2022-09-13T17:08:45;23.80;99.90
24412;DHT22;12544;46.760;15.942;2022-09-13T17:11:12;23.70;99.90
24412;DHT22;12544;46.760;15.942;2022-09-13T17:13:39;23.50;99.90
24412;DHT22;12544;46.760;15.942;2022-09-13T17:16:05;23.30;99.90
24412;DHT22;12544;46.760;15.942;2022-09-13T17:18:32;23.10;99.90
24412;DHT22;12544;46.760;15.942;2022-09-13T17:20:59;22.90;99.90
24412;DHT22;12544;46.760;15.942;2022-09-13T17:23:24;22.70;99.90
24412;DHT22;12544;46.760;15.942;2022-09-13T17:25:50;22.50;99.90
24412;DHT22;12544;46.760;15.942;2022-09-13T17:28:16;22.50;99.90
24412;DHT22;12544;46.760;15.942;2022-09-13T17:30:42;22.40;99.90
24412;DHT22;12544;46.760;15.942;2022-09-13T17:33:08;22.20;99.90
24412;DHT22;12544;46.760;15.942;2022-09-13T17:35:33;22.10;99.90
24412;DHT22;12544;46.760;15.942;2022-09-13T17:37:59;21.90;99.90
24412;DHT22;12544;46.760;15.942;2022-09-13T17:40:26;21.80;99.90
24412;DHT22;12544;46.760;15.942;2022-09-13T17:42:52;21.80;99.90
24412;DHT22;12544;46.760;15.942;2022-09-13T17:45:18;21.70;99.90
24412;DHT22;12544;46.760;15.942;2022-09-13T17:47:44;21.60;99.90
24412;DHT22;12544;46.760;15.942;2022-09-13T17:50:10;21.50;99.90
24412;DHT22;12544;46.760;15.942;2022-09-13T17:52:35;21.50;99.90
24412;DHT22;12544;46.760;15.942;2022-09-13T17:55:01;21.40;99.90
24412;DHT22;12544;46.760;15.942;2022-09-13T17:57:26;21.40;99.90
24412;DHT22;12544;46.760;15.942;2022-09-13T17:59:52;21.40;99.90
24412;DHT22;12544;46.760;15.942;2022-09-13T18:02:19;21.30;99.90
24412;DHT22;12544;46.760;15.942;2022-09-13T18:04:46;21.30;99.90
24412;DHT22;12544;46.760;15.942;2022-09-13T18:07:11;21.30;99.90
24412;DHT22;12544;46.760;15.942;2022-09-13T18:09:37;21.30;99.90
24412;DHT22;12544;46.760;15.942;2022-09-13T18:12:04;21.30;99.90
24412;DHT22;12544;46.760;15.942;2022-09-13T18:14:29;21.30;99.90
24412;DHT22;12544;46.760;15.942;2022-09-13T18:16:57;21.20;99.90
24412;DHT22;12544;46.760;15.942;2022-09-13T18:19:22;21.20;99.90
24412;DHT22;12544;46.760;15.942;2022-09-13T18:21:48;21.10;99.90
24412;DHT22;12544;46.760;15.942;2022-09-13T18:24:13;21.10;99.90
24412;DHT22;12544;46.760;15.942;2022-09-13T18:26:39;21.10;99.90
24412;DHT22;12544;46.760;15.942;2022-09-13T18:29:06;21.00;99.90
24412;DHT22;12544;46.760;15.942;2022-09-13T18:31:32;21.00;99.90
24412;DHT22;12544;46.760;15.942;2022-09-13T18:33:59;21.00;99.90
24412;DHT22;12544;46.760;15.942;2022-09-13T18:36:25;21.00;99.90
24412;DHT22;12544;46.760;15.942;2022-09-13T18:38:51;21.00;99.90
24412;DHT22;12544;46.760;15.942;2022-09-13T18:41:18;21.00;99.90